createdAt,value
2018-10-01T00:00:01.214Z,16
2018-10-01T00:02:01.088Z,15
2018-10-01T00:03:01.087Z,14
2018-10-01T00:04:01.090Z,15
2018-10-01T00:07:01.087Z,14
2018-10-01T00:08:01.087Z,15
2018-10-01T00:09:01.090Z,16
2018-10-01T00:10:01.085Z,17
2018-10-01T00:13:01.102Z,18
2018-10-01T00:14:01.088Z,17
2018-10-01T00:15:01.088Z,17
2018-10-01T00:16:01.122Z,18
2018-10-01T00:18:01.973Z,17
2018-10-01T00:19:01.091Z,19
2018-10-01T00:20:01.089Z,17
2018-10-01T00:21:01.126Z,20
2018-10-01T00:22:01.094Z,19
2018-10-01T00:25:01.092Z,20
2018-10-01T00:26:01.128Z,16
2018-10-01T00:27:01.097Z,17
2018-10-01T00:30:01.077Z,16
2018-10-01T00:31:01.075Z,18
2018-10-01T00:33:01.076Z,19
2018-10-01T00:34:01.075Z,20
2018-10-01T00:36:01.084Z,18
2018-10-01T00:37:01.106Z,20
2018-10-01T00:38:01.082Z,17
2018-10-01T00:39:01.083Z,16
2018-10-01T00:40:01.078Z,17
2018-10-01T00:41:01.085Z,19
2018-10-01T00:42:01.106Z,18
2018-10-01T00:45:01.082Z,17
2018-10-01T00:46:01.082Z,18
2018-10-01T00:49:01.081Z,19
2018-10-01T00:51:01.146Z,16
2018-10-01T00:52:01.116Z,17
2018-10-01T00:53:01.081Z,16
2018-10-01T00:55:01.081Z,17
2018-10-01T00:56:01.083Z,19
2018-10-01T00:59:01.085Z,18
2018-10-01T01:00:01.090Z,17
2018-10-01T01:01:01.084Z,16
2018-10-01T01:02:01.089Z,15
2018-10-01T01:04:01.086Z,16
2018-10-01T01:06:01.085Z,15
2018-10-01T01:07:01.087Z,14
2018-10-01T01:08:01.086Z,15
2018-10-01T01:09:01.085Z,14
2018-10-01T01:10:01.087Z,15
2018-10-01T01:11:01.088Z,16
2018-10-01T01:12:01.122Z,17
2018-10-01T01:14:01.091Z,18
2018-10-01T01:15:01.094Z,19
2018-10-01T01:16:01.087Z,18
2018-10-01T01:19:01.093Z,16
2018-10-01T01:20:01.090Z,18
2018-10-01T01:21:01.090Z,21
2018-10-01T01:22:01.119Z,20
2018-10-01T01:24:01.090Z,21
2018-10-01T01:25:01.099Z,19
2018-10-01T01:26:01.090Z,16
2018-10-01T01:29:01.092Z,17
2018-10-01T01:30:01.095Z,18
2018-10-01T01:32:01.129Z,17
2018-10-01T01:33:01.096Z,18
2018-10-01T01:34:01.090Z,15
2018-10-01T01:36:01.096Z,16
2018-10-01T01:37:01.119Z,17
2018-10-01T01:39:01.294Z,19
2018-10-01T01:42:01.103Z,18
2018-10-01T01:43:01.077Z,17
2018-10-01T01:44:01.079Z,16
2018-10-01T01:45:01.075Z,16
2018-10-01T01:47:01.073Z,17
2018-10-01T01:48:01.256Z,18
2018-10-01T01:51:01.072Z,16
2018-10-01T01:52:01.074Z,17
2018-10-01T01:54:01.079Z,19
2018-10-01T01:56:01.072Z,20
2018-10-01T01:57:01.072Z,19
2018-10-01T01:58:01.073Z,17
2018-10-01T02:00:01.075Z,16
2018-10-01T02:01:01.080Z,18
2018-10-01T02:03:01.075Z,19
2018-10-01T02:06:01.090Z,16
2018-10-01T02:07:01.081Z,15
2018-10-01T02:09:01.077Z,16
2018-10-01T02:10:01.081Z,17
2018-10-01T02:11:01.077Z,19
2018-10-01T02:12:01.079Z,20
2018-10-01T02:14:01.082Z,19
2018-10-01T02:15:01.078Z,18
2018-10-01T02:17:01.081Z,16
2018-10-01T02:18:01.079Z,17
2018-10-01T02:19:01.080Z,16
2018-10-01T02:21:01.210Z,17
2018-10-01T02:22:01.082Z,16
2018-10-01T02:23:01.085Z,17
2018-10-01T02:24:01.082Z,18
2018-10-01T02:25:01.081Z,17
2018-10-01T02:26:01.082Z,15
2018-10-01T02:29:01.096Z,14
2018-10-01T02:30:01.083Z,15
2018-10-01T02:31:01.082Z,16
2018-10-01T02:32:01.084Z,17
2018-10-01T02:33:01.081Z,16
2018-10-01T02:34:01.082Z,15
2018-10-01T02:35:01.082Z,16
2018-10-01T02:36:01.084Z,15
2018-10-01T02:37:01.084Z,17
2018-10-01T02:38:01.082Z,18
2018-10-01T02:39:01.103Z,19
2018-10-01T02:40:01.195Z,18
2018-10-01T02:41:01.082Z,20
2018-10-01T02:42:01.086Z,17
2018-10-01T02:43:01.088Z,18
2018-10-01T02:44:01.083Z,19
2018-10-01T02:45:01.085Z,19
2018-10-01T02:47:01.085Z,20
2018-10-01T02:48:01.089Z,18
2018-10-01T02:49:01.086Z,17
2018-10-01T02:54:01.213Z,18
2018-10-01T02:57:01.093Z,19
2018-10-01T02:58:02.073Z,18
2018-10-01T02:59:01.675Z,19
2018-10-01T03:00:01.089Z,19
2018-10-01T03:01:01.147Z,18
2018-10-01T03:02:01.089Z,19
2018-10-01T03:04:01.090Z,17
2018-10-01T03:05:01.117Z,18
2018-10-01T03:06:01.091Z,19
2018-10-01T03:07:01.098Z,18
2018-10-01T03:08:01.087Z,16
2018-10-01T03:09:01.093Z,18
2018-10-01T03:11:01.221Z,16
2018-10-01T03:12:01.090Z,17
2018-10-01T03:13:01.088Z,18
2018-10-01T03:15:01.127Z,16
2018-10-01T03:16:01.089Z,18
2018-10-01T03:17:01.089Z,17
2018-10-01T03:18:01.091Z,16
2018-10-01T03:19:01.089Z,17
2018-10-01T03:20:01.117Z,18
2018-10-01T03:21:01.100Z,17
2018-10-01T03:22:01.092Z,19
2018-10-01T03:24:01.089Z,16
2018-10-01T03:25:01.122Z,17
2018-10-01T03:27:01.091Z,16
2018-10-01T03:28:01.090Z,17
2018-10-01T03:29:01.120Z,19
2018-10-01T03:30:01.096Z,19
2018-10-01T03:31:01.093Z,18
2018-10-01T03:32:01.092Z,19
2018-10-01T03:33:01.093Z,18
2018-10-01T03:34:01.121Z,17
2018-10-01T03:37:01.096Z,16
2018-10-01T03:39:01.127Z,15
2018-10-01T03:40:01.106Z,12
2018-10-01T03:42:01.101Z,15
2018-10-01T03:44:01.122Z,16
2018-10-01T03:45:01.098Z,19
2018-10-01T03:46:01.094Z,18
2018-10-01T03:47:01.097Z,16
2018-10-01T03:48:01.093Z,18
2018-10-01T03:50:01.185Z,16
2018-10-01T03:51:01.093Z,18
2018-10-01T03:52:01.094Z,19
2018-10-01T03:53:01.098Z,18
2018-10-01T03:54:01.122Z,19
2018-10-01T03:56:01.093Z,17
2018-10-01T03:57:01.092Z,16
2018-10-01T03:58:01.142Z,15
2018-10-01T03:59:01.092Z,14
2018-10-01T04:00:01.096Z,14
2018-10-01T04:01:01.091Z,17
2018-10-01T04:03:01.201Z,16
2018-10-01T04:05:01.094Z,17
2018-10-01T04:06:01.094Z,16
2018-10-01T04:07:01.094Z,17
2018-10-01T04:08:01.122Z,20
2018-10-01T04:09:01.284Z,19
2018-10-01T04:12:01.082Z,20
2018-10-01T04:13:01.104Z,19
2018-10-01T04:15:01.078Z,20
2018-10-01T04:20:01.169Z,18
2018-10-01T04:21:01.080Z,20
2018-10-01T04:23:01.107Z,19
2018-10-01T04:24:01.081Z,18
2018-10-01T04:25:01.080Z,17
2018-10-01T04:26:01.080Z,15
2018-10-01T04:27:01.081Z,14
2018-10-01T04:28:01.109Z,15
2018-10-01T04:29:01.083Z,16
2018-10-01T04:30:01.081Z,17
2018-10-01T04:31:01.080Z,16
2018-10-01T04:32:01.081Z,17
2018-10-01T04:33:01.113Z,16
2018-10-01T04:34:01.082Z,15
2018-10-01T04:35:01.233Z,14
2018-10-01T04:37:01.083Z,13
2018-10-01T04:38:06.088Z,15
2018-10-01T04:40:01.146Z,14
2018-10-01T04:41:01.081Z,16
2018-10-01T04:42:01.083Z,14
2018-10-01T04:43:01.112Z,15
2018-10-01T04:44:01.084Z,16
2018-10-01T04:45:01.112Z,18
2018-10-01T04:46:01.109Z,19
2018-10-01T04:47:01.089Z,20
2018-10-01T04:48:01.086Z,18
2018-10-01T04:50:01.238Z,19
2018-10-01T04:51:02.089Z,17
2018-10-01T04:52:01.088Z,16
2018-10-01T04:53:01.084Z,15
2018-10-01T04:57:01.090Z,16
2018-10-01T04:58:01.129Z,17
2018-10-01T04:59:01.086Z,18
2018-10-01T05:00:01.127Z,16
2018-10-01T05:02:01.089Z,15
2018-10-01T05:04:01.085Z,14
2018-10-01T05:06:01.091Z,15
2018-10-01T05:11:01.095Z,16
2018-10-01T05:12:01.092Z,15
2018-10-01T05:14:01.089Z,16
2018-10-01T05:15:06.097Z,16
2018-10-01T05:16:01.090Z,15
2018-10-01T05:17:01.101Z,16
2018-10-01T05:18:01.097Z,17
2018-10-01T05:19:01.096Z,16
2018-10-01T05:20:01.122Z,17
2018-10-01T05:21:01.094Z,18
2018-10-01T05:27:01.236Z,17
2018-10-01T05:29:01.102Z,16
2018-10-01T05:30:06.101Z,16
2018-10-01T05:32:01.144Z,17
2018-10-01T05:33:01.100Z,18
2018-10-01T05:35:06.098Z,16
2018-10-01T05:37:01.077Z,15
2018-10-01T05:38:01.079Z,14
2018-10-01T05:39:01.081Z,16
2018-10-01T05:40:01.077Z,17
2018-10-01T05:41:01.094Z,16
2018-10-01T05:42:01.774Z,17
2018-10-01T05:43:01.079Z,18
2018-10-01T05:44:01.078Z,15
2018-10-01T05:45:01.076Z,15
2018-10-01T05:47:01.084Z,16
2018-10-01T05:48:01.079Z,17
2018-10-01T05:49:01.123Z,16
2018-10-01T05:50:01.080Z,15
2018-10-01T05:51:01.077Z,17
2018-10-01T05:53:01.083Z,16
2018-10-01T05:54:01.085Z,18
2018-10-01T05:56:01.087Z,17
2018-10-01T05:57:01.083Z,16
2018-10-01T05:58:01.133Z,15
2018-10-01T05:59:01.079Z,14
2018-10-01T06:00:01.078Z,15
2018-10-01T06:01:01.077Z,16
2018-10-01T06:06:01.080Z,14
2018-10-01T06:08:01.107Z,13
2018-10-01T06:10:01.145Z,15
2018-10-01T06:11:01.082Z,16
2018-10-01T06:12:02.374Z,17
2018-10-01T06:13:01.117Z,18
2018-10-01T06:14:01.086Z,19
2018-10-01T06:15:01.083Z,18
2018-10-01T06:16:01.082Z,17
2018-10-01T06:17:01.083Z,16
2018-10-01T06:18:01.124Z,17
2018-10-01T06:19:01.083Z,16
2018-10-01T06:20:01.084Z,18
2018-10-01T06:21:01.086Z,21
2018-10-01T06:22:01.083Z,22
2018-10-01T06:24:01.087Z,24
2018-10-01T06:25:01.132Z,23
2018-10-01T06:26:01.091Z,20
2018-10-01T06:27:01.085Z,19
2018-10-01T06:29:01.089Z,17
2018-10-01T06:30:01.090Z,16
2018-10-01T06:32:01.088Z,17
2018-10-01T06:33:01.113Z,18
2018-10-01T06:34:01.086Z,19
2018-10-01T06:35:01.086Z,21
2018-10-01T06:36:01.090Z,20
2018-10-01T06:37:01.088Z,19
2018-10-01T06:38:01.171Z,17
2018-10-01T06:39:01.085Z,16
2018-10-01T06:41:01.156Z,17
2018-10-01T06:42:01.097Z,16
2018-10-01T06:43:01.119Z,18
2018-10-01T06:44:01.088Z,17
2018-10-01T06:45:01.088Z,16
2018-10-01T06:48:01.115Z,14
2018-10-01T06:49:01.104Z,15
2018-10-01T06:50:01.090Z,16
2018-10-01T06:53:01.119Z,17
2018-10-01T06:54:01.090Z,16
2018-10-01T06:56:01.092Z,18
2018-10-01T06:57:01.093Z,19
2018-10-01T06:58:01.121Z,20
2018-10-01T07:00:01.157Z,20
2018-10-01T07:01:01.101Z,17
2018-10-01T07:02:01.095Z,16
2018-10-01T07:03:01.121Z,17
2018-10-01T07:04:01.092Z,15
2018-10-01T07:08:01.098Z,14
2018-10-01T07:10:01.141Z,16
2018-10-01T07:13:01.079Z,17
2018-10-01T07:14:01.080Z,16
2018-10-01T07:15:01.079Z,17
2018-10-01T07:21:01.209Z,16
2018-10-01T07:22:01.127Z,15
2018-10-01T07:23:01.152Z,14
2018-10-01T07:24:01.082Z,15
2018-10-01T07:25:01.085Z,16
2018-10-01T07:26:01.087Z,17
2018-10-01T07:27:01.122Z,19
2018-10-01T07:28:01.087Z,18
2018-10-01T07:29:01.082Z,17
2018-10-01T07:30:01.083Z,15
2018-10-01T07:32:01.083Z,14
2018-10-01T07:33:01.091Z,16
2018-10-01T07:34:01.081Z,18
2018-10-01T07:35:01.084Z,19
2018-10-01T07:37:01.114Z,18
2018-10-01T07:38:01.083Z,19
2018-10-01T07:39:01.156Z,17
2018-10-01T07:40:01.081Z,16
2018-10-01T07:45:01.189Z,18
2018-10-01T07:47:01.112Z,19
2018-10-01T07:48:01.087Z,17
2018-10-01T07:50:01.188Z,16
2018-10-01T07:53:01.090Z,17
2018-10-01T07:55:01.086Z,18
2018-10-01T07:58:01.098Z,17
2018-10-01T07:59:01.092Z,18
2018-10-01T08:00:01.225Z,17
2018-10-01T08:02:01.122Z,18
2018-10-01T08:05:01.097Z,20
2018-10-01T08:06:01.099Z,21
2018-10-01T08:07:01.122Z,19
2018-10-01T08:09:01.092Z,18
2018-10-01T08:10:01.092Z,17
2018-10-01T08:13:01.121Z,18
2018-10-01T08:15:01.097Z,18
2018-10-01T08:17:01.081Z,17
2018-10-01T08:18:01.125Z,18
2018-10-01T08:19:03.602Z,16
2018-10-01T08:21:01.143Z,19
2018-10-01T08:22:01.081Z,20
2018-10-01T08:24:01.081Z,21
2018-10-01T08:26:01.100Z,17
2018-10-01T08:27:01.082Z,16
2018-10-01T08:29:01.149Z,18
2018-10-01T08:30:01.257Z,17
2018-10-01T08:31:01.085Z,18
2018-10-01T08:32:01.106Z,19
2018-10-01T08:33:01.116Z,18
2018-10-01T08:34:01.081Z,17
2018-10-01T08:35:01.151Z,19
2018-10-01T08:36:01.089Z,21
2018-10-01T08:37:01.084Z,19
2018-10-01T08:38:01.147Z,17
2018-10-01T08:39:01.141Z,19
2018-10-01T08:40:01.088Z,18
2018-10-01T08:41:02.125Z,15
2018-10-01T08:42:01.083Z,16
2018-10-01T08:43:01.113Z,19
2018-10-01T08:44:01.113Z,18
2018-10-01T08:45:01.083Z,17
2018-10-01T08:50:01.161Z,18
2018-10-01T08:52:01.117Z,19
2018-10-01T08:53:01.177Z,18
2018-10-01T08:54:01.082Z,17
2018-10-01T08:55:01.084Z,15
2018-10-01T08:59:01.085Z,17
2018-10-01T09:00:01.084Z,18
2018-10-01T09:01:01.140Z,17
2018-10-01T09:02:01.087Z,18
2018-10-01T09:03:01.111Z,17
2018-10-01T09:04:01.086Z,15
2018-10-01T09:05:01.141Z,16
2018-10-01T09:06:01.252Z,15
2018-10-01T09:07:01.084Z,17
2018-10-01T09:09:01.088Z,21
2018-10-01T09:10:01.085Z,20
2018-10-01T09:11:01.136Z,19
2018-10-01T09:12:01.087Z,18
2018-10-01T09:13:01.116Z,20
2018-10-01T09:14:01.092Z,16
2018-10-01T09:15:01.147Z,16
2018-10-01T09:16:01.086Z,17
2018-10-01T09:17:01.141Z,16
2018-10-01T09:19:01.090Z,17
2018-10-01T09:22:01.101Z,16
2018-10-01T09:23:01.141Z,15
2018-10-01T09:24:01.091Z,14
2018-10-01T09:25:01.094Z,13
2018-10-01T09:26:01.132Z,14
2018-10-01T09:27:01.091Z,16
2018-10-01T09:28:01.124Z,15
2018-10-01T09:29:01.105Z,16
2018-10-01T09:30:01.094Z,17
2018-10-01T09:31:01.168Z,18
2018-10-01T09:34:01.092Z,19
2018-10-01T09:35:01.101Z,18
2018-10-01T09:36:01.090Z,17
2018-10-01T09:37:01.439Z,18
2018-10-01T09:39:01.090Z,16
2018-10-01T09:40:01.171Z,15
2018-10-01T09:42:01.100Z,13
2018-10-01T09:43:01.127Z,14
2018-10-01T09:45:01.075Z,17
2018-10-01T09:46:01.083Z,16
2018-10-01T09:47:01.078Z,18
2018-10-01T09:50:01.179Z,17
2018-10-01T09:53:01.106Z,15
2018-10-01T09:54:01.079Z,16
2018-10-01T09:55:01.084Z,14
2018-10-01T09:56:01.125Z,15
2018-10-01T09:57:01.077Z,17
2018-10-01T10:00:01.170Z,19
2018-10-01T10:02:01.105Z,17
2018-10-01T10:04:01.156Z,18
2018-10-01T10:05:01.084Z,16
2018-10-01T10:07:01.189Z,15
2018-10-01T10:08:01.115Z,16
2018-10-01T10:12:01.079Z,17
2018-10-01T10:13:01.081Z,16
2018-10-01T10:14:01.165Z,15
2018-10-01T10:15:01.085Z,15
2018-10-01T10:18:01.141Z,16
2018-10-01T10:19:01.110Z,15
2018-10-01T10:20:01.086Z,16
2018-10-01T10:23:01.082Z,14
2018-10-01T10:24:01.109Z,15
2018-10-01T10:28:01.118Z,17
2018-10-01T10:29:01.275Z,18
2018-10-01T10:30:01.090Z,18
2018-10-01T10:31:01.087Z,19
2018-10-01T10:33:01.085Z,18
2018-10-01T10:35:01.087Z,19
2018-10-01T10:36:01.096Z,17
2018-10-01T10:37:01.091Z,16
2018-10-01T10:38:01.097Z,17
2018-10-01T10:39:01.129Z,16
2018-10-01T10:40:01.089Z,15
2018-10-01T10:43:01.090Z,16
2018-10-01T10:44:01.159Z,15
2018-10-01T10:45:01.090Z,16
2018-10-01T10:46:01.091Z,15
2018-10-01T10:47:01.091Z,16
2018-10-01T10:48:01.102Z,15
2018-10-01T10:49:06.095Z,18
2018-10-01T10:53:01.104Z,19
2018-10-01T10:54:01.139Z,17
2018-10-01T10:57:01.176Z,18
2018-10-01T10:59:06.109Z,19
2018-10-01T11:00:01.107Z,21
2018-10-01T11:02:01.121Z,19
2018-10-01T11:03:01.099Z,18
2018-10-01T11:04:01.122Z,17
2018-10-01T11:05:01.097Z,15
2018-10-01T11:07:01.127Z,17
2018-10-01T11:08:01.100Z,18
2018-10-01T11:10:01.145Z,17
2018-10-01T11:11:01.079Z,16
2018-10-01T11:12:01.107Z,17
2018-10-01T11:13:01.081Z,16
2018-10-01T11:15:01.296Z,17
2018-10-01T11:16:01.093Z,18
2018-10-01T11:17:01.113Z,17
2018-10-01T11:19:01.254Z,18
2018-10-01T11:22:01.251Z,20
2018-10-01T11:23:01.113Z,17
2018-10-01T11:24:01.085Z,16
2018-10-01T11:26:01.083Z,14
2018-10-01T11:27:01.185Z,12
2018-10-01T11:28:01.221Z,14
2018-10-01T11:29:01.161Z,16
2018-10-01T11:30:01.086Z,15
2018-10-01T11:32:01.170Z,16
2018-10-01T11:34:01.090Z,15
2018-10-01T11:35:01.265Z,16
2018-10-01T11:36:01.085Z,17
2018-10-01T11:37:01.111Z,18
2018-10-01T11:40:01.148Z,17
2018-10-01T11:42:01.112Z,15
2018-10-01T11:44:01.088Z,16
2018-10-01T11:45:01.165Z,16
2018-10-01T11:47:01.114Z,14
2018-10-01T11:52:01.116Z,15
2018-10-01T11:53:01.084Z,14
2018-10-01T11:54:01.097Z,15
2018-10-01T11:55:01.085Z,14
2018-10-01T11:56:01.086Z,15
2018-10-01T11:57:01.121Z,14
2018-10-01T11:59:02.012Z,13
2018-10-01T12:00:01.126Z,12
2018-10-01T12:01:01.086Z,14
2018-10-01T12:02:01.091Z,15
2018-10-01T12:05:01.124Z,17
2018-10-01T12:06:01.090Z,16
2018-10-01T12:07:01.090Z,15
2018-10-01T12:09:01.129Z,16
2018-10-01T12:15:06.270Z,17
2018-10-01T12:17:01.221Z,18
2018-10-01T12:19:01.097Z,17
2018-10-01T12:20:06.102Z,16
2018-10-01T12:22:01.106Z,17
2018-10-01T12:26:01.081Z,15
2018-10-01T12:27:01.105Z,18
2018-10-01T12:28:01.108Z,16
2018-10-01T12:29:01.199Z,17
2018-10-01T12:30:01.093Z,18
2018-10-01T12:31:01.083Z,20
2018-10-01T12:32:01.080Z,19
2018-10-01T12:33:02.118Z,21
2018-10-01T12:35:01.084Z,19
2018-10-01T12:37:01.097Z,18
2018-10-01T12:38:01.115Z,17
2018-10-01T12:40:01.212Z,18
2018-10-01T12:41:01.084Z,16
2018-10-01T12:42:01.083Z,18
2018-10-01T12:43:01.195Z,17
2018-10-01T12:44:01.090Z,15
2018-10-01T12:45:01.091Z,15
2018-10-01T12:46:01.085Z,17
2018-10-01T12:47:01.086Z,15
2018-10-01T12:48:01.116Z,16
2018-10-01T12:49:01.088Z,17
2018-10-01T12:50:01.086Z,18
2018-10-01T12:51:01.088Z,19
2018-10-01T12:53:01.117Z,20
2018-10-01T12:55:01.085Z,19
2018-10-01T12:56:01.087Z,17
2018-10-01T12:57:01.099Z,16
2018-10-01T12:58:01.208Z,15
2018-10-01T13:00:01.083Z,16
2018-10-01T13:02:01.085Z,18
2018-10-01T13:03:01.113Z,17
2018-10-01T13:04:01.086Z,16
2018-10-01T13:05:01.111Z,15
2018-10-01T13:06:01.086Z,14
2018-10-01T13:07:01.091Z,15
2018-10-01T13:11:01.217Z,19
2018-10-01T13:13:01.112Z,18
2018-10-01T13:14:01.090Z,20
2018-10-01T13:15:01.087Z,20
2018-10-01T13:16:06.090Z,17
2018-10-01T13:17:01.087Z,16
2018-10-01T13:18:01.121Z,17
2018-10-01T13:19:02.114Z,16
2018-10-01T13:21:01.190Z,17
2018-10-01T13:22:01.093Z,15
2018-10-01T13:24:01.148Z,16
2018-10-01T13:28:01.120Z,18
2018-10-01T13:30:01.166Z,18
2018-10-01T13:31:01.099Z,19
2018-10-01T13:34:01.083Z,17
2018-10-01T13:36:01.126Z,16
2018-10-01T13:37:01.107Z,14
2018-10-01T13:39:01.082Z,15
2018-10-01T13:43:01.235Z,18
2018-10-01T13:44:01.083Z,17
2018-10-01T13:45:01.954Z,17
2018-10-01T13:46:01.083Z,18
2018-10-01T13:48:01.150Z,17
2018-10-01T13:49:01.081Z,20
2018-10-01T13:50:01.078Z,19
2018-10-01T13:51:01.080Z,21
2018-10-01T13:52:01.138Z,20
2018-10-01T13:53:01.177Z,21
2018-10-01T13:54:01.082Z,19
2018-10-01T13:55:01.079Z,17
2018-10-01T13:56:01.079Z,16
2018-10-01T13:58:01.598Z,14
2018-10-01T13:59:01.078Z,13
2018-10-01T14:00:01.081Z,16
2018-10-01T14:01:01.084Z,15
2018-10-01T14:02:01.130Z,17
2018-10-01T14:03:01.082Z,15
2018-10-01T14:05:01.082Z,12
2018-10-01T14:06:01.083Z,13
2018-10-01T14:09:01.112Z,14
2018-10-01T14:10:01.091Z,16
2018-10-01T14:13:01.190Z,19
2018-10-01T14:15:01.099Z,20
2018-10-01T14:16:01.087Z,19
2018-10-01T14:17:01.114Z,18
2018-10-01T14:18:01.085Z,15
2018-10-01T14:19:01.157Z,14
2018-10-01T14:20:01.207Z,13
2018-10-01T14:21:01.087Z,16
2018-10-01T14:23:01.122Z,18
2018-10-01T14:24:01.095Z,19
2018-10-01T14:25:01.183Z,21
2018-10-01T14:26:01.100Z,19
2018-10-01T14:27:01.115Z,22
2018-10-01T14:30:01.225Z,21
2018-10-01T14:31:01.166Z,22
2018-10-01T14:32:06.272Z,18
2018-10-01T14:33:01.096Z,17
2018-10-01T14:34:01.105Z,16
2018-10-01T14:36:01.095Z,15
2018-10-01T14:37:01.119Z,16
2018-10-01T14:38:01.092Z,17
2018-10-01T14:40:01.159Z,16
2018-10-01T14:41:01.091Z,19
2018-10-01T14:42:01.144Z,18
2018-10-01T14:43:01.139Z,16
2018-10-01T14:44:01.093Z,19
2018-10-01T14:45:01.102Z,20
2018-10-01T14:46:01.095Z,18
2018-10-01T14:47:06.105Z,19
2018-10-01T14:48:01.166Z,20
2018-10-01T14:49:01.097Z,17
2018-10-01T14:52:06.161Z,15
2018-10-01T14:54:01.116Z,16
2018-10-01T15:00:01.201Z,16
2018-10-01T15:02:01.078Z,15
2018-10-01T15:03:01.080Z,16
2018-10-01T15:04:01.104Z,17
2018-10-01T15:05:01.077Z,16
2018-10-01T15:06:01.100Z,17
2018-10-01T15:09:01.086Z,18
2018-10-01T15:10:01.081Z,19
2018-10-01T15:12:01.132Z,20
2018-10-01T15:13:01.109Z,19
2018-10-01T15:14:01.083Z,17
2018-10-01T15:15:01.090Z,16
2018-10-01T15:16:01.083Z,15
2018-10-01T15:17:01.084Z,16
2018-10-01T15:18:01.145Z,19
2018-10-01T15:19:01.088Z,20
2018-10-01T15:20:01.098Z,21
2018-10-01T15:21:01.090Z,23
2018-10-01T15:22:01.087Z,20
2018-10-01T15:23:01.114Z,18
2018-10-01T15:24:01.139Z,20
2018-10-01T15:25:01.089Z,19
2018-10-01T15:26:01.092Z,17
2018-10-01T15:27:01.089Z,18
2018-10-01T15:28:06.093Z,17
2018-10-01T15:30:01.227Z,18
2018-10-01T15:33:06.095Z,17
2018-10-01T15:34:01.092Z,16
2018-10-01T15:36:01.161Z,14
2018-10-01T15:37:01.093Z,15
2018-10-01T15:38:06.094Z,16
2018-10-01T15:39:01.092Z,18
2018-10-01T15:40:01.148Z,17
2018-10-01T15:43:01.122Z,19
2018-10-01T15:44:01.094Z,17
2018-10-01T15:45:01.095Z,18
2018-10-01T15:46:01.100Z,19
2018-10-01T15:47:01.099Z,20
2018-10-01T15:48:01.124Z,18
2018-10-01T15:51:01.225Z,17
2018-10-01T15:55:01.125Z,18
2018-10-01T15:57:01.722Z,17
2018-10-01T15:58:01.082Z,15
2018-10-01T15:59:06.085Z,17
2018-10-01T16:00:01.079Z,18
2018-10-01T16:02:01.081Z,17
2018-10-01T16:03:06.096Z,19
2018-10-01T16:06:01.426Z,20
2018-10-01T16:07:01.089Z,21
2018-10-01T16:08:01.083Z,19
2018-10-01T16:10:01.144Z,18
2018-10-01T16:13:01.083Z,19
2018-10-01T16:14:06.085Z,18
2018-10-01T16:15:01.083Z,18
2018-10-01T16:16:01.082Z,17
2018-10-01T16:17:01.083Z,18
2018-10-01T16:18:01.097Z,17
2018-10-01T16:22:01.148Z,16
2018-10-01T16:24:01.110Z,15
2018-10-01T16:26:01.096Z,19
2018-10-01T16:27:01.087Z,17
2018-10-01T16:28:01.093Z,18
2018-10-01T16:29:06.090Z,17
2018-10-01T16:30:01.084Z,17
2018-10-01T16:31:01.092Z,15
2018-10-01T16:32:01.089Z,16
2018-10-01T16:34:06.088Z,18
2018-10-01T16:35:01.088Z,20
2018-10-01T16:36:01.092Z,19
2018-10-01T16:38:01.093Z,18
2018-10-01T16:40:01.151Z,16
2018-10-01T16:41:01.090Z,17
2018-10-01T16:42:01.090Z,18
2018-10-01T16:44:01.117Z,17
2018-10-01T16:45:01.088Z,17
2018-10-01T16:46:01.087Z,18
2018-10-01T16:47:01.086Z,17
2018-10-01T16:51:01.219Z,16
2018-10-01T16:54:01.095Z,17
2018-10-01T16:55:01.121Z,18
2018-10-01T16:57:01.104Z,17
2018-10-01T16:58:01.099Z,19
2018-10-01T16:59:01.124Z,17
2018-10-01T17:00:01.093Z,17
2018-10-01T17:02:01.092Z,18
2018-10-01T17:03:01.091Z,15
2018-10-01T17:04:06.098Z,18
2018-10-01T17:05:01.091Z,19
2018-10-01T17:06:01.099Z,17
2018-10-01T17:07:01.097Z,19
2018-10-01T17:09:01.119Z,18
2018-10-01T17:10:01.093Z,17
2018-10-01T17:11:01.107Z,18
2018-10-01T17:12:01.098Z,16
2018-10-01T17:13:01.155Z,18
2018-10-01T17:14:01.124Z,15
2018-10-01T17:15:01.491Z,16
2018-10-01T17:17:01.094Z,18
2018-10-01T17:20:01.100Z,20
2018-10-01T17:21:01.108Z,19
2018-10-01T17:22:01.185Z,17
2018-10-01T17:25:01.125Z,16
2018-10-01T17:26:01.096Z,17
2018-10-01T17:29:01.128Z,19
2018-10-01T17:30:01.107Z,19
2018-10-01T17:32:01.105Z,18
2018-10-01T17:35:01.084Z,17
2018-10-01T17:36:01.084Z,15
2018-10-01T17:37:01.084Z,14
2018-10-01T17:38:01.087Z,15
2018-10-01T17:39:06.097Z,14
2018-10-01T17:41:01.092Z,16
2018-10-01T17:42:01.085Z,15
2018-10-01T17:43:01.085Z,16
2018-10-01T17:45:01.087Z,18
2018-10-01T17:46:01.092Z,17
2018-10-01T17:48:01.089Z,19
2018-10-01T17:50:01.116Z,17
2018-10-01T17:51:01.091Z,16
2018-10-01T17:53:01.088Z,15
2018-10-01T17:54:01.115Z,14
2018-10-01T17:55:01.090Z,15
2018-10-01T17:56:01.094Z,17
2018-10-01T17:57:01.089Z,16
2018-10-01T17:58:01.091Z,18
2018-10-01T18:00:01.230Z,18
2018-10-01T18:02:01.092Z,20
2018-10-01T18:03:01.089Z,17
2018-10-01T18:04:01.119Z,16
2018-10-01T18:05:02.172Z,17
2018-10-01T18:06:01.223Z,13
2018-10-01T18:08:01.125Z,14
2018-10-01T18:10:01.095Z,15
2018-10-01T18:11:01.096Z,17
2018-10-01T18:12:01.246Z,16
2018-10-01T18:13:01.127Z,15
2018-10-01T18:14:01.092Z,16
2018-10-01T18:15:01.092Z,14
2018-10-01T18:17:01.092Z,16
2018-10-01T18:19:01.119Z,15
2018-10-01T18:21:01.098Z,16
2018-10-01T18:26:06.101Z,15
2018-10-01T18:28:01.122Z,16
2018-10-01T18:29:01.100Z,17
2018-10-01T18:30:01.196Z,19
2018-10-01T18:32:01.145Z,18
2018-10-01T18:33:01.119Z,17
2018-10-01T18:34:01.094Z,16
2018-10-01T18:35:01.090Z,15
2018-10-01T18:37:01.090Z,14
2018-10-01T18:38:01.121Z,15
2018-10-01T18:40:02.115Z,16
2018-10-01T18:42:01.158Z,17
2018-10-01T18:43:01.119Z,18
2018-10-01T18:44:01.094Z,17
2018-10-01T18:47:01.081Z,19
2018-10-01T18:48:01.152Z,18
2018-10-01T18:51:01.234Z,19
2018-10-01T18:52:01.073Z,16
2018-10-01T18:53:01.103Z,17
2018-10-01T18:54:01.108Z,18
2018-10-01T18:55:01.078Z,17
2018-10-01T18:57:01.084Z,16
2018-10-01T18:58:01.103Z,17
2018-10-01T18:59:01.075Z,15
2018-10-01T19:00:01.150Z,16
2018-10-01T19:01:01.075Z,15
2018-10-01T19:02:01.078Z,16
2018-10-01T19:04:01.105Z,15
2018-10-01T19:05:01.077Z,16
2018-10-01T19:07:01.079Z,18
2018-10-01T19:09:01.081Z,19
2018-10-01T19:10:01.082Z,17
2018-10-01T19:11:01.110Z,18
2018-10-01T19:12:01.112Z,16
2018-10-01T19:13:01.082Z,15
2018-10-01T19:15:01.173Z,17
2018-10-01T19:17:01.099Z,19
2018-10-01T19:18:01.222Z,21
2018-10-01T19:19:01.085Z,19
2018-10-01T19:20:01.089Z,17
2018-10-01T19:21:06.134Z,16
2018-10-01T19:22:01.085Z,15
2018-10-01T19:23:01.085Z,14
2018-10-01T19:24:01.139Z,15
2018-10-01T19:25:01.090Z,16
2018-10-01T19:26:01.176Z,15
2018-10-01T19:27:01.212Z,14
2018-10-01T19:28:01.087Z,13
2018-10-01T19:29:01.087Z,14
2018-10-01T19:30:01.197Z,14
2018-10-01T19:31:01.128Z,16
2018-10-01T19:32:01.090Z,17
2018-10-01T19:33:01.173Z,18
2018-10-01T19:34:01.089Z,17
2018-10-01T19:35:01.089Z,16
2018-10-01T19:37:01.091Z,15
2018-10-01T19:39:01.198Z,18
2018-10-01T19:40:01.095Z,17
2018-10-01T19:42:01.093Z,18
2018-10-01T19:43:01.091Z,19
2018-10-01T19:44:01.092Z,17
2018-10-01T19:45:01.204Z,18
2018-10-01T19:47:01.184Z,17
2018-10-01T19:48:01.092Z,16
2018-10-01T19:50:01.148Z,15
2018-10-01T19:51:01.130Z,17
2018-10-01T19:53:01.215Z,19
2018-10-01T19:55:01.079Z,21
2018-10-01T19:56:01.106Z,20
2018-10-01T19:58:01.165Z,18
2018-10-01T19:59:01.185Z,19
2018-10-01T20:00:01.133Z,17
2018-10-01T20:02:01.123Z,16
2018-10-01T20:03:01.192Z,17
2018-10-01T20:04:01.079Z,14
2018-10-01T20:05:01.296Z,16
2018-10-01T20:07:01.109Z,17
2018-10-01T20:08:01.085Z,16
2018-10-01T20:09:01.205Z,17
2018-10-01T20:10:01.084Z,16
2018-10-01T20:12:01.108Z,15
2018-10-01T20:13:01.084Z,16
2018-10-01T20:14:01.083Z,17
2018-10-01T20:15:01.193Z,17
2018-10-01T20:16:01.134Z,16
2018-10-01T20:19:01.106Z,17
2018-10-01T20:20:01.083Z,18
2018-10-01T20:23:01.106Z,17
2018-10-01T20:24:01.190Z,15
2018-10-01T20:26:01.155Z,16
2018-10-01T20:27:02.064Z,17
2018-10-01T20:28:01.099Z,21
2018-10-01T20:30:01.242Z,20
2018-10-01T20:32:01.140Z,19
2018-10-01T20:33:01.084Z,15